Time;durP1;ratioP1;P1;durP2;ratioP2;P2;SDS_P1;SDS_P2;PMS_P1;PMS_P2;Temp;Humidity;BMP_temperature;BMP_pressure;BME280_temperature;BME280_humidity;BME280_pressure;Samples;Min_cycle;Max_cycle;Signal;HPM_P1;HPM_P2
2022/11/05 00:09:32;;;;;;;12.18;2.70;;;6.60;99.90;;;;;;5017925;28;20045;-74
2022/11/05 00:17:37;;;;;;;14.02;3.20;;;6.50;99.90;;;;;;5016148;28;20053;-74
2022/11/05 00:20:04;;;;;;;8.80;2.75;;;6.40;99.90;;;;;;5017133;28;20033;-74
2022/11/05 00:25:17;;;;;;;11.82;3.67;;;6.40;99.90;;;;;;5018389;28;20065;-74
2022/11/05 00:27:49;;;;;;;12.93;3.20;;;6.40;99.90;;;;;;5017280;28;20049;-75
2022/11/05 00:30:20;;;;;;;9.98;3.20;;;6.40;99.90;;;;;;5021107;28;20071;-74
2022/11/05 00:32:47;;;;;;;11.43;3.30;;;6.30;99.90;;;;;;5037427;28;20067;-74
2022/11/05 00:35:14;;;;;;;7.85;2.92;;;6.30;99.90;;;;;;5015904;28;20392;-75
2022/11/05 00:37:40;;;;;;;11.52;3.13;;;6.30;99.90;;;;;;5024484;28;20045;-74
2022/11/05 00:40:06;;;;;;;11.65;3.15;;;6.30;99.90;;;;;;5015412;28;20172;-75
2022/11/05 00:45:17;;;;;;;7.07;2.60;;;6.30;99.90;;;;;;5026922;28;20644;-75
2022/11/05 00:50:28;;;;;;;12.70;2.75;;;6.30;99.90;;;;;;5024986;28;20061;-75
2022/11/05 00:52:55;;;;;;;7.70;2.38;;;6.20;99.90;;;;;;5024483;28;20045;-75
2022/11/05 00:55:43;;;;;;;8.23;2.78;;;6.50;99.90;;;;;;5028185;28;20060;-75
2022/11/05 00:58:17;;;;;;;7.78;2.67;;;6.20;99.90;;;;;;5018657;28;20048;-75
2022/11/05 01:00:48;;;;;;;10.60;2.63;;;6.20;99.90;;;;;;5035480;28;20046;-74
2022/11/05 01:03:16;;;;;;;7.45;2.17;;;6.20;99.90;;;;;;5027852;28;20038;-74
2022/11/05 01:05:51;;;;;;;11.10;2.30;;;6.20;99.90;;;;;;5018497;28;20041;-74
2022/11/05 01:08:19;;;;;;;9.88;2.50;;;6.20;99.90;;;;;;5016242;28;20060;-74
2022/11/05 01:10:48;;;;;;;11.50;2.30;;;6.20;99.90;;;;;;5032754;28;20510;-74
2022/11/05 01:13:17;;;;;;;14.35;2.63;;;6.30;99.90;;;;;;5017999;28;20045;-75
2022/11/05 01:15:43;;;;;;;11.77;2.50;;;6.20;99.90;;;;;;5021190;28;20916;-74
2022/11/05 01:18:10;;;;;;;9.15;2.10;;;6.20;99.90;;;;;;5018423;28;20034;-75
2022/11/05 01:20:36;;;;;;;11.63;2.60;;;6.30;99.90;;;;;;5023084;28;20041;-74
2022/11/05 01:23:01;;;;;;;6.57;1.77;;;6.20;99.90;;;;;;5021768;28;20044;-75
2022/11/05 01:25:27;;;;;;;8.40;1.90;;;6.20;99.90;;;;;;5014804;28;20124;-75
2022/11/05 01:27:53;;;;;;;10.13;1.98;;;6.20;99.90;;;;;;5033773;28;20085;-75
2022/11/05 01:30:19;;;;;;;7.05;1.95;;;6.20;99.90;;;;;;4998387;28;20483;-75
2022/11/05 01:32:45;;;;;;;11.27;2.40;;;6.20;99.90;;;;;;4997607;28;20548;-74
2022/11/05 01:35:13;;;;;;;7.20;2.00;;;6.20;99.90;;;;;;4997290;28;20136;-74
2022/11/05 01:37:39;;;;;;;7.15;2.00;;;6.20;99.90;;;;;;5035508;28;20069;-74
2022/11/05 01:40:07;;;;;;;8.05;1.67;;;6.10;99.90;;;;;;4997578;28;20053;-74
2022/11/05 01:42:33;;;;;;;11.85;2.00;;;6.10;99.90;;;;;;5016522;28;20038;-75
2022/11/05 01:45:03;;;;;;;7.22;1.70;;;6.10;99.90;;;;;;5015801;28;20121;-74
2022/11/05 01:47:46;;;;;;;8.43;2.10;;;6.40;99.90;;;;;;5013279;28;20932;-74
2022/11/05 01:50:23;;;;;;;7.53;1.73;;;6.10;99.90;;;;;;5017866;28;20045;-75
2022/11/05 01:52:53;;;;;;;6.63;1.90;;;6.10;99.90;;;;;;5020398;28;20485;-73
2022/11/05 01:55:24;;;;;;;7.05;1.80;;;6.00;99.90;;;;;;5002715;28;20057;-75
2022/11/05 01:57:52;;;;;;;;;;;6.00;99.90;;;;;;5012817;28;20467;-74
2022/11/05 02:00:18;;;;;;;7.75;2.13;;;6.00;99.90;;;;;;5015687;28;19932;-75
2022/11/05 02:02:44;;;;;;;7.43;1.90;;;6.00;99.90;;;;;;5005757;28;20038;-75
2022/11/05 02:05:13;;;;;;;7.68;1.65;;;6.00;99.90;;;;;;5019283;28;20042;-75
2022/11/05 02:07:40;;;;;;;6.10;1.60;;;6.00;99.90;;;;;;5016263;28;20445;-74
2022/11/05 02:10:16;;;;;;;8.93;2.00;;;6.00;99.90;;;;;;5015457;28;20061;-74
2022/11/05 02:12:44;;;;;;;6.40;1.45;;;6.00;99.90;;;;;;5015889;28;20064;-73
2022/11/05 02:15:13;;;;;;;7.40;1.73;;;5.90;99.90;;;;;;5010330;28;20620;-72
2022/11/05 02:18:27;;;;;;;6.55;1.50;;;6.00;99.90;;;;;;5028220;28;20045;-72
2022/11/05 02:21:02;;;;;;;7.32;2.17;;;6.00;99.90;;;;;;5015184;28;20042;-72
2022/11/05 02:23:28;;;;;;;8.38;1.98;;;6.00;99.90;;;;;;4995009;28;20034;-73
2022/11/05 02:26:09;;;;;;;11.80;1.90;;;5.90;99.90;;;;;;5009410;28;20042;-73
2022/11/05 02:28:44;;;;;;;6.82;2.00;;;5.90;99.90;;;;;;5019751;28;20053;-73
2022/11/05 02:31:28;;;;;;;9.10;1.88;;;5.90;99.90;;;;;;4998240;28;20033;-72
2022/11/05 02:34:26;;;;;;;6.25;1.60;;;5.90;99.90;;;;;;5019413;28;20092;-72
2022/11/05 02:37:13;;;;;;;10.80;2.22;;;5.90;99.90;;;;;;5010838;28;20042;-73
2022/11/05 02:40:00;;;;;;;7.75;1.58;;;5.90;99.90;;;;;;4993287;28;20049;-73
2022/11/05 02:43:05;;;;;;;7.35;1.77;;;5.90;99.90;;;;;;4994452;28;20119;-73
2022/11/05 02:45:36;;;;;;;7.57;1.88;;;5.90;99.90;;;;;;5006980;28;20061;-73
2022/11/05 02:48:28;;;;;;;5.07;1.40;;;5.90;99.90;;;;;;5006963;28;20085;-73
2022/11/05 02:51:02;;;;;;;10.85;1.90;;;5.90;99.90;;;;;;5030691;28;20057;-73
2022/11/05 02:53:50;;;;;;;9.43;1.80;;;5.90;99.90;;;;;;5024409;28;20038;-73
2022/11/05 02:56:28;;;;;;;11.43;1.90;;;5.90;99.90;;;;;;5025511;28;20049;-74
2022/11/05 02:58:53;;;;;;;5.55;1.95;;;5.90;99.90;;;;;;5014144;28;20049;-73
2022/11/05 03:01:19;;;;;;;7.15;2.13;;;5.90;99.90;;;;;;5005779;28;20552;-73
2022/11/05 03:03:49;;;;;;;4.50;1.55;;;5.90;99.90;;;;;;5024222;28;20457;-73
2022/11/05 03:06:33;;;;;;;4.65;1.75;;;5.90;99.90;;;;;;5009454;28;20128;-73
2022/11/05 03:09:14;;;;;;;9.02;1.70;;;5.90;99.90;;;;;;5019123;28;20134;-73
2022/11/05 03:12:25;;;;;;;5.03;1.70;;;5.90;99.90;;;;;;5016372;28;20056;-73
2022/11/05 03:15:11;;;;;;;8.10;1.75;;;5.90;99.90;;;;;;5009334;28;20316;-73
2022/11/05 03:17:52;;;;;;;5.15;1.60;;;6.60;99.90;;;;;;5023649;28;20046;-73
2022/11/05 03:20:50;;;;;;;6.10;1.63;;;5.90;99.90;;;;;;5026037;28;20045;-73
2022/11/05 03:23:39;;;;;;;5.68;1.45;;;5.80;99.90;;;;;;5007872;28;20042;-73
2022/11/05 03:26:16;;;;;;;8.07;1.63;;;5.90;99.90;;;;;;5011076;28;20411;-73
2022/11/05 03:28:46;;;;;;;5.57;1.55;;;5.80;99.90;;;;;;5014113;28;20191;-73
2022/11/05 03:31:15;;;;;;;5.45;1.50;;;5.90;99.90;;;;;;5013654;28;20498;-73
2022/11/05 03:33:43;;;;;;;5.25;1.50;;;5.90;99.90;;;;;;5021304;28;20524;-73
2022/11/05 03:36:25;;;;;;;6.07;1.58;;;5.90;99.90;;;;;;5014637;28;20079;-74
2022/11/05 03:38:54;;;;;;;10.43;1.90;;;5.80;99.90;;;;;;5019923;28;20055;-73
2022/11/05 03:41:21;;;;;;;8.93;1.83;;;5.90;99.90;;;;;;5020190;28;20520;-73
2022/11/05 03:43:51;;;;;;;9.88;2.30;;;5.90;99.90;;;;;;5016466;28;20041;-73
2022/11/05 03:46:28;;;;;;;5.28;1.90;;;5.90;99.90;;;;;;5018912;28;20283;-73
2022/11/05 03:48:55;;;;;;;8.13;1.50;;;6.00;99.90;;;;;;5016409;28;20332;-73
2022/11/05 03:51:28;;;;;;;7.10;1.85;;;6.00;99.90;;;;;;5005184;28;20045;-73
2022/11/05 03:54:03;;;;;;;8.15;1.85;;;6.00;99.90;;;;;;5000116;28;20363;-73
2022/11/05 03:57:08;;;;;;;6.00;1.67;;;6.00;99.90;;;;;;5020873;28;20037;-73
2022/11/05 03:59:43;;;;;;;10.60;1.98;;;6.00;99.90;;;;;;5006834;28;20049;-72
2022/11/05 04:02:11;;;;;;;6.85;1.70;;;6.00;99.90;;;;;;5013199;28;20498;-73
2022/11/05 04:04:37;;;;;;;8.75;1.90;;;6.10;99.90;;;;;;5002082;28;20045;-73
2022/11/05 04:15:16;;;;;;;8.98;1.85;;;6.10;99.90;;;;;;5025247;28;20067;-73
2022/11/05 04:17:42;;;;;;;9.25;2.20;;;6.10;99.90;;;;;;5022436;28;20565;-74
2022/11/05 04:25:48;;;;;;;8.65;1.83;;;6.20;99.90;;;;;;5014707;28;20095;-73
2022/11/05 04:28:14;;;;;;;6.07;1.67;;;6.20;99.90;;;;;;5020351;28;20491;-73
2022/11/05 04:30:40;;;;;;;10.23;3.15;;;6.20;99.90;;;;;;5018690;28;20042;-73
2022/11/05 04:33:11;;;;;;;7.85;2.03;;;6.20;99.90;;;;;;5010671;28;20052;-72
2022/11/05 04:35:38;;;;;;;;;;;6.20;99.90;;;;;;5015628;28;20120;-73
2022/11/05 04:38:06;;;;;;;9.20;2.10;;;6.20;99.90;;;;;;5012151;28;19937;-73
2022/11/05 04:40:32;;;;;;;9.27;2.42;;;6.20;99.90;;;;;;5029169;28;20037;-74
2022/11/05 04:42:58;;;;;;;5.55;1.90;;;6.20;99.90;;;;;;5016227;28;20554;-73
2022/11/05 04:45:27;;;;;;;8.80;2.22;;;6.20;99.90;;;;;;5022015;28;20141;-74
2022/11/05 04:47:52;;;;;;;6.90;1.90;;;6.20;99.90;;;;;;5017716;28;20045;-73
2022/11/05 04:50:18;;;;;;;11.20;2.15;;;6.10;99.90;;;;;;5020042;28;20038;-72
2022/11/05 04:52:44;;;;;;;6.97;2.28;;;6.10;99.90;;;;;;5012055;28;20511;-73
2022/11/05 04:55:10;;;;;;;14.38;2.63;;;6.10;99.90;;;;;;5001258;28;20046;-73
2022/11/05 04:57:36;;;;;;;12.13;2.30;;;6.10;99.90;;;;;;5033925;28;20065;-73
2022/11/05 05:00:03;;;;;;;10.15;2.53;;;6.10;99.90;;;;;;5017524;28;20189;-73
2022/11/05 05:02:29;;;;;;;8.65;2.33;;;6.10;99.90;;;;;;5020543;28;20068;-73
2022/11/05 05:04:55;;;;;;;9.60;3.00;;;6.10;99.90;;;;;;5013016;28;20159;-73
2022/11/05 05:07:21;;;;;;;8.70;2.83;;;6.10;99.90;;;;;;5013340;28;20045;-73
2022/11/05 05:09:46;;;;;;;10.48;3.10;;;6.30;99.90;;;;;;5017947;28;20052;-74
2022/11/05 05:12:12;;;;;;;8.90;3.10;;;6.10;99.90;;;;;;5017541;28;20056;-73
2022/11/05 05:14:38;;;;;;;7.47;3.72;;;6.10;99.90;;;;;;5015521;28;20392;-73
2022/11/05 05:17:04;;;;;;;7.60;3.75;;;6.10;99.90;;;;;;5002507;28;20049;-72
2022/11/05 05:21:37;;;;;;;12.02;3.88;;;6.10;99.90;;;;;;5014248;28;20045;-73
2022/11/05 05:22:15;;;;;;;11.20;3.83;;;6.10;99.90;;;;;;5014111;28;20045;-73
2022/11/05 05:24:41;;;;;;;12.00;3.55;;;6.10;99.90;;;;;;5018473;28;20064;-73
2022/11/05 05:27:07;;;;;;;9.73;3.63;;;6.80;99.90;;;;;;5016359;28;20064;-73
2022/11/05 05:29:33;;;;;;;7.18;3.15;;;6.10;99.90;;;;;;5019509;28;20077;-73
2022/11/05 05:31:59;;;;;;;9.20;3.60;;;6.10;99.90;;;;;;5012786;28;20041;-73
2022/11/05 05:34:25;;;;;;;11.35;3.60;;;6.20;99.90;;;;;;5031378;28;20945;-73
2022/11/05 05:36:50;;;;;;;7.57;3.42;;;6.10;99.90;;;;;;4999900;28;20509;-73
2022/11/05 05:39:16;;;;;;;11.82;3.67;;;6.10;99.90;;;;;;5031977;28;20083;-74
2022/11/05 05:41:42;;;;;;;10.93;4.55;;;6.20;99.90;;;;;;5017824;28;20056;-73
2022/11/05 05:44:08;;;;;;;12.13;4.35;;;6.20;99.90;;;;;;5015573;28;20522;-73
2022/11/05 05:46:34;;;;;;;12.98;4.43;;;6.20;99.90;;;;;;5016853;28;20041;-74
2022/11/05 05:48:59;;;;;;;9.88;4.20;;;6.20;99.90;;;;;;5007664;28;20124;-73
2022/11/05 05:51:25;;;;;;;21.20;5.18;;;6.20;99.90;;;;;;5021114;28;20041;-73
2022/11/05 05:53:52;;;;;;;13.98;5.32;;;6.20;99.90;;;;;;5018442;28;20095;-74
2022/11/05 05:56:19;;;;;;;17.52;5.35;;;6.20;99.90;;;;;;5022032;28;20038;-73
2022/11/05 05:58:46;;;;;;;13.20;5.30;;;6.20;99.90;;;;;;5015181;28;20086;-73
2022/11/05 06:01:14;;;;;;;13.52;5.43;;;6.20;99.90;;;;;;5018056;28;20115;-73
2022/11/05 06:03:39;;;;;;;11.75;5.10;;;6.90;99.90;;;;;;5018645;28;20572;-73
2022/11/05 06:06:07;;;;;;;10.70;5.13;;;6.30;99.90;;;;;;5018327;28;20072;-73
2022/11/05 06:08:34;;;;;;;11.93;5.35;;;6.30;99.90;;;;;;5013312;28;20814;-73
2022/11/05 06:11:00;;;;;;;11.35;4.75;;;6.30;99.90;;;;;;5021519;28;20679;-73
2022/11/05 06:13:27;;;;;;;12.68;4.90;;;6.30;99.90;;;;;;5024945;28;20770;-73
2022/11/05 06:15:53;;;;;;;14.90;4.90;;;6.30;99.90;;;;;;5006250;28;20045;-73
2022/11/05 06:18:18;;;;;;;10.85;4.35;;;6.30;99.90;;;;;;5027146;28;20046;-73
2022/11/05 06:20:44;;;;;;;12.52;4.32;;;6.30;99.90;;;;;;5024506;28;20033;-73
2022/11/05 06:23:10;;;;;;;9.52;4.20;;;6.30;99.90;;;;;;5009993;28;20075;-73
2022/11/05 06:25:36;;;;;;;8.40;4.13;;;6.90;99.90;;;;;;5004235;28;20135;-73
2022/11/05 06:28:01;;;;;;;9.93;4.55;;;6.30;99.90;;;;;;5010200;28;20049;-73
2022/11/05 06:30:27;;;;;;;8.88;4.10;;;6.30;99.90;;;;;;5014695;28;20052;-73
2022/11/05 06:32:53;;;;;;;8.70;3.88;;;6.30;99.90;;;;;;5021836;28;20057;-73
2022/11/05 06:35:19;;;;;;;9.23;4.40;;;6.30;99.90;;;;;;5003958;28;20510;-74
2022/11/05 06:37:44;;;;;;;9.63;4.00;;;6.20;99.90;;;;;;5039376;28;20053;-73
2022/11/05 06:40:10;;;;;;;12.43;4.13;;;6.50;99.90;;;;;;5018733;28;20053;-73
2022/11/05 06:42:36;;;;;;;10.60;4.45;;;6.30;99.90;;;;;;5018189;28;20053;-73
2022/11/05 06:45:02;;;;;;;11.40;4.30;;;6.20;99.90;;;;;;4999490;28;20030;-73
2022/11/05 06:47:28;;;;;;;10.30;4.35;;;6.20;99.90;;;;;;5020760;28;20463;-73
2022/11/05 06:49:55;;;;;;;7.40;4.20;;;6.60;99.90;;;;;;5031205;28;20192;-73
2022/11/05 06:52:20;;;;;;;9.82;4.70;;;6.20;99.90;;;;;;4993420;28;20053;-74
2022/11/05 06:54:46;;;;;;;11.23;5.20;;;6.20;99.90;;;;;;4990749;28;20049;-73
2022/11/05 06:57:12;;;;;;;8.63;4.57;;;6.20;99.90;;;;;;5002816;28;20052;-74
2022/11/05 06:59:38;;;;;;;10.52;5.00;;;6.20;99.90;;;;;;5008048;28;20124;-73
2022/11/05 07:02:05;;;;;;;10.50;4.82;;;6.10;99.90;;;;;;5014943;28;20278;-73
2022/11/05 07:04:31;;;;;;;12.15;4.50;;;6.10;99.90;;;;;;5011938;28;20057;-74
2022/11/05 07:07:00;;;;;;;12.77;4.80;;;6.10;99.90;;;;;;5014156;28;20037;-74
2022/11/05 07:09:26;;;;;;;11.32;4.35;;;6.80;99.90;;;;;;5013221;28;20052;-74
2022/11/05 07:11:52;;;;;;;8.23;4.32;;;6.10;99.90;;;;;;5017804;28;20041;-74
2022/11/05 07:14:18;;;;;;;8.82;4.20;;;6.20;99.90;;;;;;5014298;28;20524;-73
2022/11/05 07:16:44;;;;;;;11.90;5.18;;;6.10;99.90;;;;;;5032914;28;20065;-73
2022/11/05 07:19:09;;;;;;;9.43;4.82;;;6.10;99.90;;;;;;5011131;28;20078;-74
2022/11/05 07:21:35;;;;;;;10.18;4.63;;;6.10;99.90;;;;;;5000352;28;20103;-73
2022/11/05 07:24:01;;;;;;;11.75;4.65;;;6.10;99.90;;;;;;4998532;28;20128;-73
2022/11/05 07:26:27;;;;;;;9.15;4.82;;;6.20;99.90;;;;;;5024260;28;20132;-73
2022/11/05 07:28:54;;;;;;;8.48;4.53;;;6.20;99.90;;;;;;5015009;28;20033;-73
2022/11/05 07:31:20;;;;;;;9.68;4.18;;;6.20;99.90;;;;;;4999746;28;20593;-73
2022/11/05 07:33:46;;;;;;;9.70;4.50;;;6.20;99.90;;;;;;5010851;28;20221;-73
2022/11/05 07:36:11;;;;;;;13.10;5.03;;;6.30;99.90;;;;;;5013217;28;20045;-73
2022/11/05 07:38:37;;;;;;;12.02;4.90;;;6.30;99.90;;;;;;5003258;28;20103;-73
2022/11/05 07:41:03;;;;;;;11.73;4.13;;;6.70;99.90;;;;;;5008671;28;20037;-73
2022/11/05 07:43:29;;;;;;;13.27;4.40;;;6.40;99.90;;;;;;5015376;28;20068;-73
2022/11/05 07:45:55;;;;;;;11.43;4.07;;;6.40;99.90;;;;;;5007248;28;20124;-73
2022/11/05 07:48:20;;;;;;;10.00;3.85;;;6.40;99.90;;;;;;5014766;28;20099;-73
2022/11/05 07:50:50;;;;;;;9.18;4.00;;;6.40;99.90;;;;;;5029992;28;20489;-73
2022/11/05 07:53:16;;;;;;;11.65;3.80;;;6.50;99.90;;;;;;5005282;28;20042;-73
2022/11/05 07:55:44;;;;;;;10.45;3.83;;;6.50;99.90;;;;;;5021815;28;20053;-73
2022/11/05 07:58:11;;;;;;;6.97;3.70;;;6.60;99.90;;;;;;5004240;28;20045;-73
2022/11/05 08:00:37;;;;;;;13.70;4.20;;;6.60;99.90;;;;;;5006191;28;20041;-73
2022/11/05 08:03:14;;;;;;;12.52;4.43;;;6.90;99.90;;;;;;4990656;28;20277;-74
2022/11/05 08:05:44;;;;;;;11.00;3.95;;;6.70;99.90;;;;;;5015851;28;20474;-72
2022/11/05 08:08:13;;;;;;;11.20;4.77;;;6.80;99.90;;;;;;5009449;28;20049;-73
2022/11/05 08:10:39;;;;;;;8.23;3.65;;;6.90;99.90;;;;;;5006808;28;20076;-73
2022/11/05 08:13:05;;;;;;;10.50;3.80;;;6.90;99.90;;;;;;5006893;28;20394;-73
2022/11/05 08:15:32;;;;;;;10.73;3.80;;;7.00;99.90;;;;;;5008854;28;20137;-73
2022/11/05 08:18:03;;;;;;;9.35;4.05;;;7.00;99.90;;;;;;5032582;28;20069;-73
2022/11/05 08:20:29;;;;;;;13.95;4.15;;;7.10;99.90;;;;;;5014313;28;20052;-74
2022/11/05 08:22:56;;;;;;;13.45;4.28;;;7.20;99.90;;;;;;5010462;28;20082;-73
2022/11/05 08:25:23;;;;;;;8.88;3.42;;;7.30;99.90;;;;;;5023974;28;20690;-74
2022/11/05 08:28:01;;;;;;;9.63;3.63;;;7.30;99.90;;;;;;5034590;28;20118;-73
2022/11/05 08:30:27;;;;;;;9.02;3.70;;;7.40;99.90;;;;;;5013556;28;20053;-73
2022/11/05 08:33:01;;;;;;;10.52;3.35;;;7.50;99.90;;;;;;5008651;28;20541;-73
2022/11/05 08:35:28;;;;;;;9.38;3.75;;;7.60;99.90;;;;;;4991965;28;20071;-73
2022/11/05 08:37:59;;;;;;;8.77;3.45;;;7.70;99.90;;;;;;5031843;28;20063;-73
2022/11/05 08:40:25;;;;;;;11.38;3.25;;;7.80;99.90;;;;;;5002527;28;20058;-73
2022/11/05 08:42:51;;;;;;;8.13;3.10;;;8.00;99.90;;;;;;4990166;28;20057;-73
2022/11/05 08:45:17;;;;;;;6.68;2.95;;;8.10;99.90;;;;;;5034180;28;20506;-73
2022/11/05 08:47:43;;;;;;;8.75;3.40;;;8.20;99.90;;;;;;5005285;28;20101;-73
2022/11/05 08:50:09;;;;;;;8.85;3.60;;;8.20;99.90;;;;;;5009715;28;20698;-73
2022/11/05 08:52:39;;;;;;;9.93;3.05;;;8.30;99.90;;;;;;5012410;28;20547;-73
2022/11/05 08:55:05;;;;;;;12.68;2.90;;;8.40;99.90;;;;;;5014637;28;20550;-74
2022/11/05 08:57:31;;;;;;;11.70;3.40;;;8.40;99.90;;;;;;5013651;28;20053;-75
2022/11/05 08:59:59;;;;;;;10.35;2.97;;;8.60;99.90;;;;;;5012768;28;20115;-74
2022/11/05 09:02:25;;;;;;;13.57;3.00;;;8.60;99.90;;;;;;5013314;28;20073;-74
2022/11/05 09:04:51;;;;;;;10.50;3.72;;;8.70;99.90;;;;;;5015211;28;20071;-74
2022/11/05 09:07:17;;;;;;;7.05;3.17;;;8.80;99.90;;;;;;5034763;28;20132;-74
2022/11/05 09:09:42;;;;;;;8.63;2.92;;;8.80;99.90;;;;;;5002133;28;20068;-74
2022/11/05 09:12:08;;;;;;;11.45;3.08;;;8.90;99.90;;;;;;5007754;28;20049;-74
2022/11/05 09:14:37;;;;;;;8.55;3.03;;;9.00;99.90;;;;;;5009654;28;20034;-74
2022/11/05 09:17:02;;;;;;;8.63;2.83;;;8.90;99.90;;;;;;4996711;28;20088;-74
2022/11/05 09:19:28;;;;;;;9.88;2.90;;;9.00;99.90;;;;;;5002791;28;20681;-74
2022/11/05 09:21:54;;;;;;;11.35;2.97;;;9.00;99.90;;;;;;5005588;28;20049;-77
2022/11/05 09:24:19;;;;;;;9.25;2.90;;;9.00;99.90;;;;;;5003835;28;20038;-77
2022/11/05 09:26:45;;;;;;;8.23;2.95;;;9.00;99.90;;;;;;5008812;28;20494;-77
2022/11/05 09:29:11;;;;;;;9.38;2.92;;;9.10;99.90;;;;;;5012929;28;20746;-75
2022/11/05 09:31:37;;;;;;;7.90;2.90;;;9.10;99.90;;;;;;5014806;28;20133;-75
2022/11/05 09:34:02;;;;;;;5.88;2.78;;;9.10;99.90;;;;;;4997446;28;20064;-76
2022/11/05 09:36:28;;;;;;;8.52;2.35;;;9.20;99.90;;;;;;5015705;28;20103;-76
2022/11/05 09:38:53;;;;;;;9.35;2.83;;;9.10;99.90;;;;;;5008743;28;20048;-75
2022/11/05 09:41:25;;;;;;;8.45;2.80;;;9.30;99.90;;;;;;5020640;28;20069;-76
2022/11/05 09:44:20;;;;;;;7.45;2.63;;;9.20;99.90;;;;;;5007021;28;20050;-76
2022/11/05 09:46:57;;;;;;;8.85;2.35;;;9.30;99.90;;;;;;5026310;28;20060;-75
2022/11/05 09:49:38;;;;;;;8.25;2.28;;;9.40;99.90;;;;;;5037660;28;20041;-76
2022/11/05 09:52:04;;;;;;;;;;;9.50;99.90;;;;;;5029053;28;20077;-78
2022/11/05 09:54:32;;;;;;;6.72;2.28;;;9.60;99.90;;;;;;5026310;28;20264;-76
2022/11/05 09:57:00;;;;;;;10.57;2.53;;;9.70;99.90;;;;;;5026861;28;20076;-76
2022/11/05 09:59:37;;;;;;;9.82;2.45;;;10.00;99.90;;;;;;5013137;28;20064;-76
2022/11/05 10:02:11;;;;;;;10.27;2.42;;;9.70;99.90;;;;;;5025316;28;20047;-77
2022/11/05 10:04:38;;;;;;;9.57;2.95;;;9.80;99.90;;;;;;5025842;28;20103;-77
2022/11/05 10:07:06;;;;;;;7.72;2.10;;;9.80;99.90;;;;;;5028810;28;20045;-76
2022/11/05 10:09:47;;;;;;;9.35;2.50;;;9.90;99.90;;;;;;5031971;28;20044;-76
2022/11/05 10:12:16;;;;;;;8.13;2.17;;;10.00;99.90;;;;;;5025844;28;20052;-76
2022/11/05 10:15:09;;;;;;;7.65;2.20;;;10.10;99.90;;;;;;5047864;28;20128;-76
2022/11/05 10:17:38;;;;;;;6.82;2.47;;;10.20;99.90;;;;;;5031889;28;20094;-76
2022/11/05 10:20:10;;;;;;;8.70;1.85;;;10.30;99.90;;;;;;5030428;28;20047;-76
2022/11/05 10:22:36;;;;;;;8.77;2.10;;;10.30;99.90;;;;;;5033359;28;20147;-76
2022/11/05 10:25:15;;;;;;;11.75;2.55;;;10.30;99.90;;;;;;5030188;28;20037;-77
2022/11/05 10:27:43;;;;;;;7.68;2.35;;;10.40;99.90;;;;;;5029778;28;20045;-76
2022/11/05 10:30:13;;;;;;;5.80;1.98;;;10.50;99.90;;;;;;5009429;28;20047;-77
2022/11/05 10:32:41;;;;;;;6.00;2.38;;;10.50;99.90;;;;;;5039356;28;20045;-77
2022/11/05 10:35:13;;;;;;;4.93;2.08;;;10.50;99.90;;;;;;5037061;28;20045;-76
2022/11/05 10:37:40;;;;;;;10.10;2.40;;;10.60;99.90;;;;;;5022902;28;20608;-76
2022/11/05 10:40:50;;;;;;;11.13;2.20;;;10.70;99.90;;;;;;5032240;28;20091;-76
2022/11/05 10:43:39;;;;;;;9.55;2.20;;;10.70;99.90;;;;;;5055386;28;20052;-76
2022/11/05 10:46:14;;;;;;;8.75;2.45;;;10.70;99.90;;;;;;5031433;28;20053;-77
2022/11/05 10:48:49;;;;;;;7.72;2.00;;;10.70;99.90;;;;;;5035076;28;20525;-77
2022/11/05 10:51:16;;;;;;;8.02;2.50;;;10.70;99.90;;;;;;5030697;28;20546;-77
2022/11/05 10:53:54;;;;;;;6.72;2.42;;;10.70;99.90;;;;;;5025304;28;20037;-77
2022/11/05 10:56:30;;;;;;;8.80;2.22;;;10.70;99.90;;;;;;5028596;28;20068;-77
2022/11/05 10:58:58;;;;;;;12.15;2.28;;;10.70;99.90;;;;;;5016167;28;20041;-77
2022/11/05 11:01:25;;;;;;;7.43;2.17;;;10.70;99.90;;;;;;5017597;28;20069;-77
2022/11/05 11:04:16;;;;;;;7.82;2.33;;;10.80;99.90;;;;;;5032053;28;20045;-77
2022/11/05 11:06:53;;;;;;;6.13;2.30;;;10.90;99.90;;;;;;5017016;28;20065;-77
2022/11/05 11:09:30;;;;;;;9.68;2.33;;;10.90;99.90;;;;;;5031348;28;20045;-77
2022/11/05 11:12:05;;;;;;;9.68;2.17;;;10.90;99.90;;;;;;5023151;28;20045;-77
2022/11/05 11:14:33;;;;;;;9.15;2.33;;;11.00;99.90;;;;;;5024888;28;20673;-77
2022/11/05 11:17:26;;;;;;;6.70;1.83;;;11.10;99.90;;;;;;5026420;28;20091;-78
2022/11/05 11:20:18;;;;;;;8.65;1.70;;;11.10;99.90;;;;;;5028589;28;20052;-77
2022/11/05 11:23:14;;;;;;;6.68;1.90;;;11.10;99.90;;;;;;5027006;28;20033;-77
2022/11/05 11:25:51;;;;;;;10.20;1.60;;;11.20;99.90;;;;;;5047848;28;20069;-77
2022/11/05 11:28:23;;;;;;;9.60;1.73;;;11.20;99.90;;;;;;5004980;28;20046;-77
2022/11/05 11:31:02;;;;;;;8.90;1.70;;;11.20;99.90;;;;;;5022251;28;20079;-77
2022/11/05 11:33:28;;;;;;;8.65;1.60;;;11.20;99.90;;;;;;5023969;28;20403;-77
2022/11/05 11:35:54;;;;;;;7.25;1.70;;;11.30;99.90;;;;;;5030292;28;20050;-77
2022/11/05 11:38:23;;;;;;;8.40;1.67;;;11.30;99.90;;;;;;5027790;28;20041;-77
2022/11/05 11:40:50;;;;;;;7.47;1.38;;;11.30;99.90;;;;;;5041865;28;20051;-77
2022/11/05 11:43:32;;;;;;;7.70;1.70;;;11.30;99.90;;;;;;5025179;28;20033;-76
2022/11/05 11:45:58;;;;;;;6.05;1.40;;;11.30;99.90;;;;;;5008661;28;20896;-77
2022/11/05 11:48:29;;;;;;;7.32;1.60;;;11.30;99.90;;;;;;5019871;28;20061;-76
2022/11/05 11:50:56;;;;;;;7.25;1.85;;;11.30;99.90;;;;;;5030714;28;20088;-76
2022/11/05 11:53:27;;;;;;;7.80;1.70;;;11.30;99.90;;;;;;5006804;28;20037;-76
2022/11/05 11:56:02;;;;;;;13.85;1.80;;;11.30;99.90;;;;;;5023799;28;20038;-77
2022/11/05 11:58:56;;;;;;;8.07;1.80;;;11.30;99.90;;;;;;5034027;28;20102;-76
2022/11/05 12:01:46;;;;;;;4.80;1.50;;;11.30;99.90;;;;;;5018453;28;20053;-77
2022/11/05 12:04:33;;;;;;;8.82;1.70;;;11.30;99.90;;;;;;5022724;28;20439;-76
2022/11/05 12:07:18;;;;;;;7.18;1.60;;;11.20;99.90;;;;;;5025857;28;20048;-77
2022/11/05 12:10:11;;;;;;;8.48;1.98;;;11.20;99.90;;;;;;5008346;28;20438;-76
2022/11/05 12:12:40;;;;;;;5.25;1.60;;;11.20;99.90;;;;;;5009862;28;20076;-76
2022/11/05 12:15:08;;;;;;;4.30;1.15;;;11.20;99.90;;;;;;5021528;28;20041;-76
2022/11/05 12:17:53;;;;;;;3.28;1.10;;;11.10;99.90;;;;;;5023653;28;20521;-77
2022/11/05 12:20:43;;;;;;;5.15;1.17;;;11.10;99.90;;;;;;5028795;28;20521;-76
2022/11/05 12:23:17;;;;;;;5.30;0.90;;;11.10;99.90;;;;;;5025817;28;20585;-76
2022/11/05 12:26:01;;;;;;;3.50;0.88;;;11.00;99.90;;;;;;5019214;28;20353;-75
2022/11/05 12:28:48;;;;;;;3.42;1.00;;;11.00;99.90;;;;;;5031389;28;20080;-77
2022/11/05 12:31:29;;;;;;;4.97;0.80;;;11.00;99.90;;;;;;5021929;28;20056;-77
2022/11/05 12:34:20;;;;;;;4.90;0.75;;;10.90;99.90;;;;;;5020866;28;20518;-77
2022/11/05 12:37:11;;;;;;;3.20;0.88;;;10.90;99.90;;;;;;5026893;28;20132;-77
2022/11/05 12:39:52;;;;;;;2.63;0.70;;;10.90;99.90;;;;;;5031835;28;20055;-77
2022/11/05 12:42:37;;;;;;;6.20;1.30;;;10.90;99.90;;;;;;5048716;28;20337;-78
2022/11/05 12:45:18;;;;;;;4.35;0.90;;;10.90;99.90;;;;;;5029362;28;20068;-78
2022/11/05 12:47:47;;;;;;;3.15;0.95;;;10.90;99.90;;;;;;5022066;28;20046;-77
2022/11/05 12:50:21;;;;;;;2.60;0.80;;;11.20;99.90;;;;;;5028050;28;20125;-77
2022/11/05 12:53:15;;;;;;;3.88;1.00;;;10.80;99.90;;;;;;5032363;28;20461;-78
2022/11/05 12:55:45;;;;;;;4.82;0.80;;;10.80;99.90;;;;;;5027857;28;20045;-77
2022/11/05 12:58:28;;;;;;;3.30;0.82;;;10.70;99.90;;;;;;5025298;28;20463;-77
2022/11/05 13:01:00;;;;;;;5.38;0.95;;;10.70;99.90;;;;;;5017196;28;20096;-77
2022/11/05 13:03:42;;;;;;;5.97;1.08;;;10.60;99.90;;;;;;5002181;28;20056;-77
2022/11/05 13:06:40;;;;;;;4.53;1.42;;;10.60;99.90;;;;;;5017418;28;20041;-77
2022/11/05 13:09:18;;;;;;;4.35;0.90;;;10.60;99.90;;;;;;5003003;28;20531;-77
2022/11/05 13:11:52;;;;;;;3.47;0.88;;;10.50;99.90;;;;;;4995524;28;20048;-77
2022/11/05 13:14:29;;;;;;;4.80;0.82;;;10.50;99.90;;;;;;5036246;28;20458;-77
2022/11/05 13:17:19;;;;;;;2.60;0.90;;;10.50;99.90;;;;;;5027762;28;20305;-77
2022/11/05 13:20:24;;;;;;;4.47;1.10;;;10.50;99.90;;;;;;5026220;28;20269;-77
2022/11/05 13:23:02;;;;;;;3.42;0.98;;;10.50;99.90;;;;;;5027291;28;20048;-77
2022/11/05 13:25:40;;;;;;;7.18;1.23;;;10.50;99.90;;;;;;5120365;27;1459389;-76
2022/11/05 13:28:38;;;;;;;4.47;1.10;;;10.60;99.90;;;;;;5128213;27;20449;-78
2022/11/05 13:31:12;;;;;;;2.35;0.85;;;10.60;99.90;;;;;;5113029;27;20042;-77
2022/11/05 13:33:43;;;;;;;4.45;1.13;;;10.60;99.90;;;;;;5126030;27;20050;-78
2022/11/05 13:39:44;;;;;;;3.53;1.17;;;10.70;99.90;;;;;;5146425;27;20055;-78
2022/11/05 13:42:29;;;;;;;4.90;1.50;;;10.60;99.90;;;;;;5117700;27;20061;-77
2022/11/05 13:45:04;;;;;;;4.85;1.88;;;10.70;99.90;;;;;;5107332;27;20039;-77
2022/11/05 13:47:54;;;;;;;6.20;1.85;;;10.70;99.90;;;;;;5148704;27;20039;-78
2022/11/05 13:50:27;;;;;;;7.57;1.80;;;10.70;99.90;;;;;;5148346;27;20124;-78
2022/11/05 13:53:27;;;;;;;9.88;2.45;;;10.70;99.90;;;;;;5105574;27;20858;-78
2022/11/05 13:56:11;;;;;;;17.95;2.85;;;10.70;99.90;;;;;;5133537;27;20364;-77
2022/11/05 13:59:05;;;;;;;10.45;3.05;;;10.70;99.90;;;;;;5112458;27;20043;-79